Time;durP1;ratioP1;P1;durP2;ratioP2;P2;SDS_P1;SDS_P2;PMS_P1;PMS_P2;Temp;Humidity;BMP_temperature;BMP_pressure;BME280_temperature;BME280_humidity;BME280_pressure;Samples;Min_cycle;Max_cycle;Signal;HPM_P1;HPM_P2
2023/01/03 00:01:59;;;;;;;31.23;13.90;;;4.00;99.90;;;;;;6153818;23;20373;-88
2023/01/03 00:04:38;;;;;;;27.73;11.63;;;6.00;99.90;;;;;;6185157;23;20021;-88
2023/01/03 00:07:32;;;;;;;28.57;12.67;;;4.10;99.90;;;;;;6184580;23;20028;-88
2023/01/03 00:10:16;;;;;;;27.13;12.33;;;3.90;99.90;;;;;;6183932;23;20065;-88
2023/01/03 00:12:56;;;;;;;26.80;12.40;;;4.00;99.90;;;;;;6184906;23;20028;-88
2023/01/03 00:15:39;;;;;;;28.67;11.57;;;3.90;99.90;;;;;;6185541;23;20024;-88
2023/01/03 00:18:05;;;;;;;29.65;13.32;;;4.50;99.90;;;;;;6159531;23;20013;-89
2023/01/03 00:20:52;;;;;;;27.23;12.13;;;3.50;99.90;;;;;;6158282;23;20012;-88
2023/01/03 00:23:18;;;;;;;25.90;12.20;;;3.80;99.90;;;;;;6047689;23;20023;-88
2023/01/03 00:25:44;;;;;;;25.83;13.10;;;3.60;99.90;;;;;;6185457;23;20013;-88
2023/01/03 00:28:15;;;;;;;29.57;13.43;;;3.20;99.90;;;;;;6184480;23;20017;-87
2023/01/03 00:30:41;;;;;;;32.13;14.37;;;5.60;99.90;;;;;;6165805;23;20031;-88
2023/01/03 00:33:22;;;;;;;33.27;14.63;;;3.50;99.90;;;;;;6164743;23;20021;-88
2023/01/03 00:35:48;;;;;;;28.70;12.80;;;5.50;99.90;;;;;;6159242;23;20013;-87
2023/01/03 00:38:13;;;;;;;30.50;13.27;;;3.00;99.90;;;;;;6185696;23;20434;-88
2023/01/03 00:40:47;;;;;;;31.87;12.97;;;5.30;99.90;;;;;;6157806;23;20100;-88
2023/01/03 00:46:05;;;;;;;31.53;13.77;;;3.30;99.90;;;;;;6159105;23;20021;-87
2023/01/03 00:48:43;;;;;;;25.07;12.13;;;5.40;99.90;;;;;;6184509;23;20061;-87
2023/01/03 00:51:31;;;;;;;30.77;12.93;;;3.70;99.90;;;;;;6186155;23;20036;-87
2023/01/03 00:53:59;;;;;;;37.17;15.37;;;4.20;99.90;;;;;;6159362;23;20032;-87
2023/01/03 00:56:44;;;;;;;30.27;14.07;;;4.50;99.90;;;;;;6157827;23;20009;-87
2023/01/03 00:59:34;;;;;;;29.33;12.97;;;3.40;99.90;;;;;;6159122;23;20021;-87
2023/01/03 01:02:08;;;;;;;34.40;13.57;;;4.30;99.90;;;;;;6144107;23;20013;-87
2023/01/03 01:04:34;;;;;;;29.70;14.30;;;3.30;99.90;;;;;;6158626;23;20073;-88
2023/01/03 01:07:06;;;;;;;28.97;13.10;;;3.90;99.90;;;;;;6169061;23;20021;-88
2023/01/03 01:09:34;;;;;;;36.47;16.10;;;3.20;99.90;;;;;;6184955;23;20056;-87
2023/01/03 01:12:21;;;;;;;29.17;13.27;;;3.00;99.90;;;;;;6185075;23;20092;-88
2023/01/03 01:14:46;;;;;;;30.33;14.23;;;3.30;99.90;;;;;;6159020;23;20017;-88
2023/01/03 01:17:33;;;;;;;28.53;12.77;;;4.20;99.90;;;;;;6151566;23;20093;-88
2023/01/03 01:19:59;;;;;;;30.60;14.00;;;2.60;99.90;;;;;;6158648;23;20056;-88
2023/01/03 01:22:43;;;;;;;36.50;13.30;;;4.60;99.90;;;;;;6184833;23;20349;-88
2023/01/03 01:25:09;;;;;;;35.55;13.90;;;3.40;99.90;;;;;;6185512;23;20019;-88
2023/01/03 01:27:50;;;;;;;28.30;12.23;;;3.40;99.90;;;;;;6158552;23;20345;-88
2023/01/03 01:30:16;;;;;;;27.03;11.53;;;2.90;99.90;;;;;;6184052;23;20151;-88
2023/01/03 01:33:00;;;;;;;27.80;12.57;;;3.40;99.90;;;;;;6158684;23;20080;-88
2023/01/03 01:35:25;;;;;;;26.48;11.70;;;3.00;99.90;;;;;;6185507;23;20016;-88
2023/01/03 01:38:09;;;;;;;28.43;11.63;;;3.40;99.90;;;;;;6160207;23;20512;-88
2023/01/03 01:40:54;;;;;;;29.85;12.20;;;3.10;99.90;;;;;;6185503;23;20048;-87
2023/01/03 01:46:34;;;;;;;25.33;11.93;;;3.00;99.90;;;;;;6188064;23;20397;-88
2023/01/03 01:49:20;;;;;;;26.70;11.23;;;2.80;99.90;;;;;;6158554;23;20021;-88
2023/01/03 01:52:12;;;;;;;30.10;11.80;;;4.40;99.90;;;;;;6176203;23;20021;-88
2023/01/03 01:54:53;;;;;;;29.60;12.03;;;2.90;99.90;;;;;;6214933;23;20345;-89
2023/01/03 01:57:41;;;;;;;27.60;11.40;;;2.90;99.90;;;;;;6187915;23;20433;-88
2023/01/03 02:00:28;;;;;;;30.60;11.63;;;3.00;99.90;;;;;;6188818;23;20457;-88
2023/01/03 02:03:15;;;;;;;26.37;11.27;;;2.90;99.90;;;;;;6188073;23;20021;-88
2023/01/03 02:05:43;;;;;;;;;;;2.00;99.90;;;;;;6214285;23;20032;-89
2023/01/03 02:08:21;;;;;;;25.23;11.70;;;4.40;99.90;;;;;;6193355;23;19919;-88
2023/01/03 02:11:06;;;;;;;24.17;11.13;;;3.70;99.90;;;;;;6188642;23;20369;-88
2023/01/03 02:14:20;;;;;;;32.27;12.73;;;3.30;99.90;;;;;;6213716;23;20087;-88
2023/01/03 02:17:11;;;;;;;27.20;12.20;;;2.80;99.90;;;;;;6188731;23;20070;-88
2023/01/03 02:20:27;;;;;;;26.73;11.73;;;2.70;99.90;;;;;;6191545;23;20012;-88
2023/01/03 02:23:32;;;;;;;34.30;13.50;;;2.70;99.90;;;;;;6187933;23;20036;-88
2023/01/03 02:26:37;;;;;;;33.20;14.10;;;3.40;99.90;;;;;;6178846;23;20016;-88
2023/01/03 02:29:33;;;;;;;30.37;13.57;;;2.60;99.90;;;;;;6188323;23;20024;-88
2023/01/03 02:32:45;;;;;;;31.23;13.43;;;3.20;99.90;;;;;;6215168;23;20063;-88
2023/01/03 02:35:37;;;;;;;37.97;13.53;;;2.50;99.90;;;;;;6214148;23;20047;-88
2023/01/03 02:38:51;;;;;;;31.47;13.60;;;3.90;99.90;;;;;;6181568;23;20067;-88
2023/01/03 02:45:10;;;;;;;32.77;13.53;;;2.60;99.90;;;;;;6027494;23;20060;-88
2023/01/03 02:48:02;;;;;;;33.80;14.57;;;2.50;99.90;;;;;;6102959;23;20153;-89
2023/01/03 02:50:50;;;;;;;35.97;14.47;;;2.50;99.90;;;;;;6214181;23;20449;-88
2023/01/03 02:53:40;;;;;;;34.47;13.77;;;3.20;99.90;;;;;;6195486;23;20017;-88
2023/01/03 02:56:39;;;;;;;41.57;15.60;;;2.30;99.90;;;;;;6214580;23;20016;-88
2023/01/03 02:59:28;;;;;;;39.87;15.97;;;2.30;99.90;;;;;;6158247;23;20024;-88
2023/01/03 03:02:13;;;;;;;37.47;15.10;;;2.30;99.90;;;;;;6186979;23;20409;-88
2023/01/03 03:14:55;;;;;;;43.60;17.13;;;4.30;99.90;;;;;;6150670;23;20025;-88
2023/01/03 03:17:44;;;;;;;49.23;17.70;;;2.60;99.90;;;;;;6186724;23;20368;-89
2023/01/03 03:26:44;;;;;;;45.70;17.17;;;1.90;99.90;;;;;;6187148;23;20020;-89
2023/01/03 03:29:17;;;;;;;51.73;19.33;;;2.70;99.90;;;;;;6188696;23;20021;-88
2023/01/03 03:31:54;;;;;;;51.80;19.20;;;1.80;99.90;;;;;;6185483;23;20103;-88
2023/01/03 03:34:43;;;;;;;44.13;19.00;;;1.70;99.90;;;;;;6185218;23;20017;-88
2023/01/03 03:37:33;;;;;;;50.30;19.07;;;2.20;99.90;;;;;;6184117;23;20023;-88
2023/01/03 03:46:48;;;;;;;46.13;18.87;;;3.20;99.90;;;;;;6184072;23;20088;-88
2023/01/03 03:51:57;;;;;;;47.90;17.00;;;1.70;99.90;;;;;;6153690;23;20086;-88
2023/01/03 03:54:36;;;;;;;51.00;18.53;;;1.30;99.90;;;;;;6154005;23;20013;-88
2023/01/03 03:57:48;;;;;;;79.70;20.13;;;0.70;99.90;;;;;;6156187;23;20021;-88
2023/01/03 04:00:42;;;;;;;55.47;17.63;;;1.30;99.90;;;;;;6156005;23;20099;-88
2023/01/03 04:03:29;;;;;;;64.53;19.33;;;1.30;99.90;;;;;;6156913;23;20017;-88
2023/01/03 04:06:50;;;;;;;72.10;20.37;;;1.50;99.90;;;;;;6132932;23;20021;-88
2023/01/03 04:09:36;;;;;;;52.77;17.87;;;1.70;99.90;;;;;;6036676;23;20107;-88
2023/01/03 04:12:15;;;;;;;46.30;16.63;;;0.80;99.90;;;;;;6108812;23;20013;-86
2023/01/03 04:15:06;;;;;;;50.33;18.50;;;0.40;99.90;;;;;;6158835;23;20028;-88
2023/01/03 04:17:48;;;;;;;51.83;17.87;;;0.90;99.90;;;;;;6158496;23;20013;-88
2023/01/03 04:20:14;;;;;;;52.17;18.77;;;0.70;99.90;;;;;;6184787;23;20020;-88
2023/01/03 04:23:00;;;;;;;64.93;19.73;;;0.70;99.90;;;;;;6186061;23;20013;-88
2023/01/03 04:25:42;;;;;;;57.37;20.20;;;0.70;99.90;;;;;;6158458;23;20013;-88
2023/01/03 04:28:26;;;;;;;56.40;19.03;;;0.40;99.90;;;;;;6159393;23;20105;-88
2023/01/03 04:31:01;;;;;;;84.20;21.03;;;1.10;99.90;;;;;;6185997;23;20013;-88
2023/01/03 04:33:26;;;;;;;61.67;19.73;;;0.40;99.90;;;;;;6156895;23;20096;-88
2023/01/03 04:36:07;;;;;;;92.13;23.60;;;1.00;99.90;;;;;;6159303;23;20055;-88
2023/01/03 04:38:51;;;;;;;53.63;21.13;;;0.40;99.90;;;;;;6158992;23;20049;-88
2023/01/03 04:41:40;;;;;;;61.57;22.33;;;0.40;99.90;;;;;;6162787;23;20013;-88
2023/01/03 04:44:19;;;;;;;76.60;24.07;;;0.20;99.90;;;;;;6159210;23;20087;-88
2023/01/03 04:47:36;;;;;;;67.00;23.03;;;0.10;99.90;;;;;;6184767;23;20024;-88
2023/01/03 04:53:13;;;;;;;86.53;26.40;;;0.50;99.90;;;;;;6158655;23;20045;-89
2023/01/03 04:55:58;;;;;;;75.50;25.83;;;1.20;99.90;;;;;;6135720;23;20092;-89
2023/01/03 04:58:38;;;;;;;89.20;26.00;;;0.60;99.90;;;;;;6185611;23;20005;-88
2023/01/03 05:01:06;;;;;;;82.37;28.43;;;1.00;99.90;;;;;;6158074;23;20113;-88
2023/01/03 05:03:55;;;;;;;104.00;29.67;;;0.60;99.90;;;;;;6182777;23;20013;-88
2023/01/03 05:06:29;;;;;;;113.10;30.97;;;1.30;99.90;;;;;;6159386;23;20413;-88
2023/01/03 05:09:21;;;;;;;114.33;31.67;;;0.90;99.90;;;;;;6157634;23;20021;-88
2023/01/03 05:11:49;;;;;;;89.33;29.57;;;0.70;99.90;;;;;;6159919;23;20017;-88
2023/01/03 05:14:31;;;;;;;100.43;31.43;;;0.40;99.90;;;;;;6166623;23;20013;-88
2023/01/03 05:17:19;;;;;;;94.30;32.00;;;1.10;99.90;;;;;;6164071;23;20047;-88
2023/01/03 05:26:19;;;;;;;127.20;33.08;;;1.80;99.90;;;;;;6184999;23;20020;-88
2023/01/03 05:28:53;;;;;;;102.33;31.37;;;2.50;99.90;;;;;;6184236;23;20060;-88
2023/01/03 05:31:37;;;;;;;111.40;32.73;;;1.40;99.90;;;;;;6158679;23;20488;-88
2023/01/03 05:34:21;;;;;;;110.55;32.30;;;1.10;99.90;;;;;;6184741;23;20353;-89
2023/01/03 05:36:59;;;;;;;121.47;34.23;;;0.80;99.90;;;;;;6157454;23;20017;-88
2023/01/03 05:39:34;;;;;;;117.00;32.77;;;1.60;99.90;;;;;;6185111;23;20021;-89
2023/01/03 05:42:12;;;;;;;108.30;32.17;;;0.30;99.90;;;;;;6158534;23;20013;-88
2023/01/03 05:44:49;;;;;;;121.47;34.93;;;1.30;99.90;;;;;;6157448;23;20402;-89
2023/01/03 05:47:30;;;;;;;107.93;32.63;;;0.10;99.90;;;;;;6158318;23;20013;-88
2023/01/03 05:49:56;;;;;;;114.70;35.93;;;1.40;99.90;;;;;;6159870;23;20049;-88
2023/01/03 05:52:27;;;;;;;120.50;35.73;;;0.70;99.90;;;;;;6189678;23;20013;-88
2023/01/03 05:55:05;;;;;;;133.40;37.40;;;0.20;99.90;;;;;;6184094;23;20017;-88
2023/01/03 05:57:51;;;;;;;127.30;35.30;;;0.30;99.90;;;;;;6157759;23;20021;-89
2023/01/03 06:00:33;;;;;;;159.27;38.33;;;1.90;99.90;;;;;;6185307;23;20021;-88
2023/01/03 06:03:10;;;;;;;137.17;36.53;;;-0.10;99.90;;;;;;6185517;23;20017;-89
2023/01/03 06:06:00;;;;;;;128.20;36.80;;;1.40;99.90;;;;;;6185259;23;20017;-89
2023/01/03 06:08:29;;;;;;;129.27;37.80;;;1.20;99.90;;;;;;6157624;23;20048;-88
2023/01/03 06:11:09;;;;;;;127.53;37.27;;;1.20;99.90;;;;;;6156588;23;20521;-88
2023/01/03 06:13:52;;;;;;;141.33;37.90;;;-0.10;99.90;;;;;;6184447;23;20079;-88
2023/01/03 06:19:49;;;;;;;137.87;35.80;;;0.30;99.90;;;;;;6156819;23;20021;-88
2023/01/03 06:22:35;;;;;;;122.63;36.57;;;-0.10;99.90;;;;;;6068929;23;20022;-88
2023/01/03 06:25:16;;;;;;;172.53;38.50;;;-0.30;99.90;;;;;;6104271;23;20021;-87
2023/01/03 06:28:00;;;;;;;127.80;38.00;;;0.20;99.90;;;;;;6161852;23;20068;-88
2023/01/03 06:30:41;;;;;;;222.95;43.60;;;-0.20;99.90;;;;;;6157930;23;20025;-87
2023/01/03 06:33:07;;;;;;;551.70;61.47;;;0.80;99.90;;;;;;6184193;23;20020;-88
2023/01/03 06:35:47;;;;;;;640.37;67.03;;;0.50;99.90;;;;;;6157468;23;20412;-87
2023/01/03 06:38:13;;;;;;;489.43;56.17;;;2.00;99.90;;;;;;6185952;23;20021;-88
2023/01/03 06:40:49;;;;;;;563.03;59.70;;;0.50;99.90;;;;;;6176974;23;20084;-88
2023/01/03 06:43:23;;;;;;;484.03;53.13;;;0.40;99.90;;;;;;6159046;23;20021;-88
2023/01/03 06:55:32;;;;;;;558.93;62.63;;;0.60;99.90;;;;;;6157287;23;20023;-88
2023/01/03 06:58:13;;;;;;;494.77;55.63;;;1.60;99.90;;;;;;6158374;23;20021;-89
2023/01/03 07:00:47;;;;;;;501.70;54.70;;;2.20;99.90;;;;;;6185019;23;20036;-88
2023/01/03 07:03:19;;;;;;;511.13;55.23;;;1.40;99.90;;;;;;6162317;23;20020;-89
2023/01/03 07:05:48;;;;;;;452.43;51.60;;;0.90;99.90;;;;;;6184378;23;20024;-89
2023/01/03 07:08:26;;;;;;;463.17;51.47;;;1.10;99.90;;;;;;6156587;23;20024;-88
2023/01/03 07:11:00;;;;;;;566.17;59.40;;;1.40;99.90;;;;;;6184538;23;20024;-89
2023/01/03 07:16:52;;;;;;;583.43;60.57;;;2.80;99.90;;;;;;6184726;23;20027;-86
2023/01/03 07:19:19;;;;;;;472.23;50.47;;;1.20;99.90;;;;;;6184339;23;20028;-87
2023/01/03 07:21:47;;;;;;;517.20;54.27;;;1.30;99.90;;;;;;6183832;23;20024;-85
2023/01/03 07:24:30;;;;;;;508.40;51.13;;;1.50;99.90;;;;;;6157762;23;20028;-84
2023/01/03 07:26:56;;;;;;;466.67;48.97;;;2.50;99.90;;;;;;6184622;23;20016;-85
2023/01/03 07:29:22;;;;;;;499.13;52.90;;;1.40;99.90;;;;;;6183456;23;20017;-84
2023/01/03 07:32:06;;;;;;;568.27;57.07;;;1.50;99.90;;;;;;6186137;23;20017;-83
2023/01/03 07:34:43;;;;;;;546.92;57.60;;;1.70;99.90;;;;;;6185678;23;20353;-84
2023/01/03 07:37:15;;;;;;;485.97;52.37;;;1.40;99.90;;;;;;6158454;23;20096;-85
2023/01/03 07:39:40;;;;;;;486.93;54.20;;;2.20;99.90;;;;;;6159542;23;20021;-86
2023/01/03 07:45:23;;;;;;;430.38;47.92;;;2.20;99.90;;;;;;6125343;23;20029;-86
2023/01/03 07:47:53;;;;;;;428.97;48.77;;;2.80;99.90;;;;;;6125249;23;20068;-84
2023/01/03 07:50:19;;;;;;;436.33;46.70;;;2.80;99.90;;;;;;6124095;23;20399;-84
2023/01/03 07:52:44;;;;;;;351.53;41.63;;;1.80;99.90;;;;;;6125120;23;20053;-85
2023/01/03 07:55:10;;;;;;;479.47;50.13;;;2.00;99.90;;;;;;6150821;23;20341;-84
2023/01/03 07:57:36;;;;;;;431.67;47.47;;;1.90;99.90;;;;;;6214888;23;20472;-84
2023/01/03 08:00:02;;;;;;;458.37;48.47;;;2.90;99.90;;;;;;6216140;23;20035;-83
2023/01/03 08:02:34;;;;;;;389.50;47.63;;;2.30;99.90;;;;;;6215681;23;20044;-83
2023/01/03 08:05:09;;;;;;;374.17;45.17;;;3.10;99.90;;;;;;6188260;23;20013;-83
2023/01/03 08:07:35;;;;;;;455.03;50.77;;;3.20;99.90;;;;;;6213355;23;20058;-83
2023/01/03 08:16:10;;;;;;;359.83;48.00;;;2.50;99.90;;;;;;6216381;23;20017;-84
2023/01/03 08:18:36;;;;;;;325.10;46.77;;;3.00;99.90;;;;;;6215129;23;20020;-84
2023/01/03 08:21:10;;;;;;;338.60;47.83;;;2.80;99.90;;;;;;6216264;23;20017;-84
2023/01/03 08:23:37;;;;;;;323.77;45.87;;;2.60;99.90;;;;;;6216272;23;20013;-84
2023/01/03 08:26:14;;;;;;;279.00;46.50;;;3.60;99.90;;;;;;6188333;23;20015;-84
2023/01/03 08:28:49;;;;;;;288.10;47.57;;;3.50;99.90;;;;;;6215940;23;20048;-84
2023/01/03 08:31:38;;;;;;;317.23;48.90;;;2.60;99.90;;;;;;6215407;23;20016;-83
2023/01/03 08:34:25;;;;;;;249.23;45.67;;;3.00;99.90;;;;;;6216090;23;20338;-84
2023/01/03 08:37:09;;;;;;;186.43;41.97;;;2.40;99.90;;;;;;6187314;23;20345;-83
2023/01/03 08:40:17;;;;;;;254.97;48.20;;;3.50;99.90;;;;;;6188408;23;20071;-84
2023/01/03 08:43:00;;;;;;;234.93;46.37;;;4.00;99.90;;;;;;6123051;23;20026;-84
2023/01/03 08:45:29;;;;;;;202.93;42.80;;;4.30;99.90;;;;;;6184810;23;20020;-84
2023/01/03 08:47:57;;;;;;;225.87;45.63;;;4.30;99.90;;;;;;6214071;23;20086;-82
2023/01/03 08:50:53;;;;;;;179.43;43.00;;;4.80;99.90;;;;;;6187021;23;20508;-83
2023/01/03 08:53:37;;;;;;;183.70;43.67;;;3.30;99.90;;;;;;6188063;23;20452;-83
2023/01/03 08:56:02;;;;;;;180.27;42.43;;;3.70;99.90;;;;;;6198230;23;20410;-82
2023/01/03 08:58:28;;;;;;;178.83;42.67;;;3.70;99.90;;;;;;6158857;23;20021;-83
2023/01/03 09:00:54;;;;;;;138.67;38.57;;;3.50;99.90;;;;;;6185238;23;20357;-83
2023/01/03 09:03:19;;;;;;;160.13;40.13;;;5.40;99.90;;;;;;6158717;23;20028;-83
2023/01/03 09:05:45;;;;;;;135.37;38.10;;;3.40;99.90;;;;;;6159411;23;20009;-83
2023/01/03 09:08:17;;;;;;;145.57;38.27;;;3.70;99.90;;;;;;6184707;23;20021;-83
2023/01/03 09:11:07;;;;;;;144.30;37.90;;;4.80;99.90;;;;;;6185059;23;20484;-83
2023/01/03 09:13:53;;;;;;;174.20;39.23;;;3.70;99.90;;;;;;6185548;23;20020;-82
2023/01/03 09:16:33;;;;;;;167.90;39.90;;;3.80;99.90;;;;;;6158350;23;20047;-82
2023/01/03 09:19:11;;;;;;;135.80;36.67;;;5.20;99.90;;;;;;6158851;23;20101;-83
2023/01/03 09:21:55;;;;;;;120.47;33.47;;;3.90;99.90;;;;;;6158099;23;20067;-82
2023/01/03 09:24:21;;;;;;;127.63;35.65;;;5.60;99.90;;;;;;6159020;23;20048;-83
2023/01/03 09:26:47;;;;;;;128.17;33.53;;;3.40;99.90;;;;;;6158656;23;20312;-82
2023/01/03 09:29:13;;;;;;;107.57;32.13;;;3.60;99.90;;;;;;6157712;23;20017;-82
2023/01/03 09:31:41;;;;;;;116.60;33.73;;;3.80;99.90;;;;;;6158814;23;20021;-82
2023/01/03 09:34:22;;;;;;;115.07;33.57;;;3.80;99.90;;;;;;6185169;23;20021;-82
2023/01/03 09:36:48;;;;;;;120.97;34.73;;;3.80;99.90;;;;;;6157945;23;20017;-82
2023/01/03 09:39:19;;;;;;;102.27;31.43;;;5.40;99.90;;;;;;6185613;23;20020;-82
2023/01/03 09:44:51;;;;;;;117.60;33.43;;;4.50;99.90;;;;;;6185461;23;20017;-82
2023/01/03 09:47:24;;;;;;;152.57;35.77;;;3.10;99.90;;;;;;6178936;23;20020;-83
2023/01/03 09:49:56;;;;;;;127.82;33.65;;;4.00;99.90;;;;;;6158160;23;20048;-82
2023/01/03 10:05:18;;;;;;;134.93;37.60;;;4.00;99.90;;;;;;6176972;23;20024;-83
2023/01/03 10:07:54;;;;;;;142.07;38.87;;;4.10;99.90;;;;;;6158178;23;20095;-83
2023/01/03 10:10:41;;;;;;;152.63;39.73;;;4.10;99.90;;;;;;6156815;23;20959;-83
2023/01/03 10:13:38;;;;;;;127.20;38.70;;;4.10;99.90;;;;;;6158669;23;20163;-83
2023/01/03 10:16:40;;;;;;;148.10;39.37;;;4.10;99.90;;;;;;6128360;23;20351;-83
2023/01/03 10:19:24;;;;;;;158.33;40.13;;;4.20;99.90;;;;;;6153498;23;20443;-83
2023/01/03 10:22:23;;;;;;;135.95;39.00;;;4.20;99.90;;;;;;6155353;23;20017;-83
2023/01/03 10:25:03;;;;;;;135.60;38.70;;;4.40;99.90;;;;;;6128130;23;20017;-83
2023/01/03 10:27:35;;;;;;;146.27;38.60;;;4.00;99.90;;;;;;6128172;23;20077;-84
2023/01/03 10:30:04;;;;;;;153.87;40.40;;;5.70;99.90;;;;;;6155353;23;20017;-83
2023/01/03 10:32:55;;;;;;;141.83;40.80;;;4.40;99.90;;;;;;6154307;23;20012;-83
2023/01/03 10:35:23;;;;;;;157.53;40.63;;;4.30;99.90;;;;;;6128987;23;20374;-83
2023/01/03 10:37:59;;;;;;;158.80;40.30;;;4.50;99.90;;;;;;6128594;23;20009;-83
2023/01/03 10:41:03;;;;;;;167.20;40.97;;;4.70;99.90;;;;;;6127620;23;20120;-83
2023/01/03 10:43:56;;;;;;;148.43;41.00;;;4.80;99.90;;;;;;6034306;23;20020;-82
2023/01/03 10:46:22;;;;;;;140.23;40.73;;;4.60;99.90;;;;;;6014920;23;20106;-82
2023/01/03 10:49:25;;;;;;;150.10;40.60;;;4.40;99.90;;;;;;6154055;23;20049;-82
2023/01/03 10:51:53;;;;;;;129.10;40.10;;;4.70;99.90;;;;;;6121705;23;20095;-83
2023/01/03 10:54:30;;;;;;;121.20;38.30;;;4.90;99.90;;;;;;6127188;23;20036;-82
2023/01/03 10:57:47;;;;;;;133.67;39.97;;;4.90;99.90;;;;;;6127903;23;20072;-83
2023/01/03 11:00:35;;;;;;;115.30;37.53;;;6.20;99.90;;;;;;6077320;23;20029;-85
2023/01/03 11:03:31;;;;;;;118.63;38.13;;;5.00;99.90;;;;;;6155137;23;20017;-83
2023/01/03 11:06:00;;;;;;;116.27;37.07;;;4.30;99.90;;;;;;6128805;23;20021;-83
2023/01/03 11:08:48;;;;;;;108.90;36.37;;;5.20;99.90;;;;;;6129274;23;20057;-83
2023/01/03 11:11:25;;;;;;;109.77;36.30;;;5.00;99.90;;;;;;6130756;23;20013;-83
2023/01/03 11:14:42;;;;;;;101.57;35.47;;;6.90;99.90;;;;;;6159280;23;20035;-84
2023/01/03 11:17:34;;;;;;;93.70;34.73;;;5.20;99.90;;;;;;6159869;23;20338;-84
2023/01/03 11:20:19;;;;;;;83.97;32.03;;;5.10;99.90;;;;;;6159942;23;20103;-82
2023/01/03 11:23:07;;;;;;;91.77;34.67;;;5.10;99.90;;;;;;6186863;23;20013;-84
2023/01/03 11:26:22;;;;;;;86.87;33.33;;;4.70;99.90;;;;;;6159554;23;20440;-85
2023/01/03 11:29:35;;;;;;;84.13;31.73;;;5.30;99.90;;;;;;6185420;23;20060;-84
2023/01/03 11:32:29;;;;;;;79.10;32.67;;;5.40;99.90;;;;;;6186897;23;20013;-84
2023/01/03 11:35:12;;;;;;;83.10;33.70;;;5.40;99.90;;;;;;6185898;23;20024;-84
2023/01/03 11:37:49;;;;;;;68.57;30.17;;;4.80;99.90;;;;;;6160269;23;20066;-83
2023/01/03 11:40:34;;;;;;;65.13;28.77;;;5.60;99.90;;;;;;6159645;23;20350;-84
2023/01/03 11:46:09;;;;;;;60.43;26.43;;;4.60;99.90;;;;;;6157666;23;20435;-83
2023/01/03 11:49:04;;;;;;;53.13;25.30;;;5.50;99.90;;;;;;6129254;23;20072;-82
2023/01/03 11:52:12;;;;;;;52.50;24.37;;;5.70;99.90;;;;;;6154843;23;20067;-82
2023/01/03 11:54:41;;;;;;;49.97;24.00;;;6.00;99.90;;;;;;6185990;23;20021;-82
2023/01/03 11:57:22;;;;;;;44.47;22.50;;;7.10;99.90;;;;;;6158547;23;20116;-83
2023/01/03 12:01:03;;;;;;;53.37;23.30;;;5.80;99.90;;;;;;6157350;23;20017;-82
2023/01/03 12:04:04;;;;;;;41.43;19.47;;;5.80;99.90;;;;;;6181860;23;20017;-82
2023/01/03 12:06:40;;;;;;;39.63;20.00;;;5.80;99.90;;;;;;6159064;23;20052;-82
2023/01/03 12:09:29;;;;;;;38.80;20.00;;;5.70;99.90;;;;;;6186239;23;20036;-82
2023/01/03 12:12:26;;;;;;;41.87;19.93;;;6.10;99.90;;;;;;6185492;23;20104;-82
2023/01/03 12:15:13;;;;;;;38.80;18.77;;;5.90;99.90;;;;;;6186682;23;20120;-83
2023/01/03 12:18:01;;;;;;;42.47;19.23;;;5.60;99.90;;;;;;6158603;23;20052;-83
2023/01/03 12:20:47;;;;;;;38.83;18.63;;;5.90;99.90;;;;;;6185678;23;20075;-85
2023/01/03 12:23:55;;;;;;;32.20;18.23;;;5.70;99.90;;;;;;6159514;23;20013;-84
2023/01/03 12:26:23;;;;;;;34.53;18.00;;;6.00;99.90;;;;;;6158716;23;20052;-84
2023/01/03 12:28:55;;;;;;;34.53;17.53;;;6.00;99.90;;;;;;6185592;23;20067;-84
2023/01/03 12:31:42;;;;;;;33.60;17.43;;;6.10;99.90;;;;;;6158373;23;20369;-84
2023/01/03 12:34:34;;;;;;;36.23;17.70;;;5.80;99.90;;;;;;6159414;23;20021;-84
2023/01/03 12:37:18;;;;;;;36.27;17.90;;;6.30;99.90;;;;;;6159410;23;20504;-84
2023/01/03 12:39:58;;;;;;;32.23;16.80;;;6.10;99.90;;;;;;6158422;23;20338;-84
2023/01/03 12:42:43;;;;;;;35.50;18.67;;;5.90;99.90;;;;;;6159205;23;20400;-84
2023/01/03 12:45:36;;;;;;;34.93;20.17;;;6.10;99.90;;;;;;6158101;23;20342;-84
2023/01/03 12:48:30;;;;;;;31.47;16.67;;;6.10;99.90;;;;;;6159019;23;20076;-84
2023/01/03 12:50:55;;;;;;;39.42;18.23;;;6.20;99.90;;;;;;6144621;23;20092;-84
2023/01/03 12:53:49;;;;;;;35.63;21.83;;;6.20;99.90;;;;;;6184534;23;20386;-84
2023/01/03 12:56:43;;;;;;;33.67;17.42;;;6.20;99.90;;;;;;6185088;23;20084;-84
2023/01/03 12:59:35;;;;;;;33.77;17.23;;;6.20;99.90;;;;;;6158146;23;20071;-84
2023/01/03 13:02:38;;;;;;;36.13;19.50;;;6.20;99.90;;;;;;6159160;23;20442;-84
2023/01/03 13:05:34;;;;;;;35.70;17.63;;;6.20;99.90;;;;;;6185985;23;20027;-84
2023/01/03 13:08:05;;;;;;;35.43;17.30;;;6.20;99.90;;;;;;6185083;23;20021;-84
2023/01/03 13:10:34;;;;;;;34.10;17.30;;;7.20;99.90;;;;;;6185375;23;20052;-84
2023/01/03 13:13:13;;;;;;;34.90;17.10;;;7.10;99.90;;;;;;6184788;23;20021;-84
2023/01/03 13:15:39;;;;;;;33.50;16.30;;;6.40;99.90;;;;;;6159395;23;20013;-84
2023/01/03 13:18:22;;;;;;;31.67;15.43;;;8.10;99.90;;;;;;6185884;23;20074;-83
2023/01/03 13:21:39;;;;;;;30.40;14.20;;;6.10;99.90;;;;;;6156313;23;20021;-84
2023/01/03 13:24:51;;;;;;;32.47;16.03;;;6.40;99.90;;;;;;6178596;23;20013;-83
2023/01/03 13:27:19;;;;;;;33.63;16.40;;;6.40;99.90;;;;;;6157761;23;20096;-83
2023/01/03 13:29:59;;;;;;;30.47;15.50;;;6.20;99.90;;;;;;6175127;23;20070;-84
2023/01/03 13:33:14;;;;;;;28.33;15.07;;;5.60;99.90;;;;;;6158928;23;20044;-84
2023/01/03 13:36:00;;;;;;;28.20;14.48;;;6.40;99.90;;;;;;6158382;23;20507;-84
2023/01/03 13:38:35;;;;;;;30.80;14.90;;;6.20;99.90;;;;;;6181813;23;20017;-86
2023/01/03 13:41:25;;;;;;;36.50;19.67;;;6.90;99.90;;;;;;6158187;23;20040;-85
2023/01/03 13:44:32;;;;;;;30.03;14.77;;;6.60;99.90;;;;;;6159347;23;20013;-84
2023/01/03 13:46:58;;;;;;;28.80;15.40;;;7.30;99.90;;;;;;6125862;23;20017;-85
2023/01/03 13:49:38;;;;;;;31.13;15.00;;;7.90;99.90;;;;;;6183132;23;20311;-84
2023/01/03 13:56:29;;;;;;;31.20;15.83;;;6.30;99.90;;;;;;6142591;23;20023;-83
2023/01/03 13:59:43;;;;;;;27.97;14.73;;;6.50;99.90;;;;;;6153803;23;20021;-83
2023/01/03 14:03:02;;;;;;;26.13;14.40;;;6.60;99.90;;;;;;6135690;23;20053;-83
2023/01/03 14:06:14;;;;;;;26.50;14.03;;;6.60;99.90;;;;;;6168256;23;20350;-82
2023/01/03 14:09:09;;;;;;;28.77;13.50;;;6.50;99.90;;;;;;6157567;23;20461;-82
2023/01/03 14:12:12;;;;;;;25.33;12.83;;;6.60;99.90;;;;;;6184747;23;20453;-81
2023/01/03 14:14:57;;;;;;;28.73;14.50;;;6.30;99.90;;;;;;6181665;23;20013;-81
2023/01/03 14:17:31;;;;;;;25.80;12.63;;;7.40;99.90;;;;;;6155966;23;20516;-81
2023/01/03 14:20:12;;;;;;;25.50;12.70;;;7.10;99.90;;;;;;6156980;23;20346;-81
2023/01/03 14:23:02;;;;;;;25.73;13.60;;;7.30;99.90;;;;;;6184283;23;20013;-82
2023/01/03 14:25:46;;;;;;;26.40;12.70;;;6.90;99.90;;;;;;6182529;23;20024;-84
2023/01/03 14:28:28;;;;;;;25.77;12.97;;;8.60;99.90;;;;;;6157988;23;20025;-84
2023/01/03 14:31:20;;;;;;;23.90;12.97;;;8.30;99.90;;;;;;6157605;23;20091;-82
2023/01/03 14:33:53;;;;;;;26.03;15.20;;;6.70;99.90;;;;;;6158541;23;20020;-82
2023/01/03 14:36:28;;;;;;;22.80;13.02;;;6.80;99.90;;;;;;6184986;23;20009;-82
2023/01/03 14:39:20;;;;;;;28.43;12.10;;;8.40;99.90;;;;;;6157763;23;20457;-82
2023/01/03 14:42:00;;;;;;;22.03;11.00;;;7.60;99.90;;;;;;6158539;23;20013;-83
2023/01/03 14:44:33;;;;;;;22.60;11.13;;;6.50;99.90;;;;;;6157356;23;20017;-83
2023/01/03 14:47:16;;;;;;;23.23;11.32;;;6.00;99.90;;;;;;6158182;23;20338;-80
2023/01/03 14:49:57;;;;;;;23.90;11.57;;;7.80;99.90;;;;;;6152252;23;20017;-83
2023/01/03 14:52:41;;;;;;;23.87;12.90;;;6.90;99.90;;;;;;6156902;23;20013;-83
2023/01/03 14:55:18;;;;;;;21.00;11.30;;;7.60;99.90;;;;;;6184571;23;20021;-83
2023/01/03 14:58:03;;;;;;;22.47;10.87;;;8.30;99.90;;;;;;6158135;23;20090;-82
2023/01/03 15:00:36;;;;;;;27.00;12.37;;;5.30;99.90;;;;;;6183694;23;20056;-83
2023/01/03 15:03:03;;;;;;;24.83;10.87;;;6.60;99.90;;;;;;6158253;23;20338;-83
2023/01/03 15:05:41;;;;;;;19.23;9.83;;;6.40;99.90;;;;;;6183543;23;20609;-83
2023/01/03 15:08:51;;;;;;;21.13;11.07;;;6.30;99.90;;;;;;6157854;23;20028;-83
2023/01/03 15:11:54;;;;;;;19.83;10.30;;;7.00;99.90;;;;;;6157906;23;20121;-83
2023/01/03 15:14:37;;;;;;;19.37;10.33;;;6.70;99.90;;;;;;6155620;23;20434;-82
2023/01/03 15:17:22;;;;;;;19.53;10.73;;;8.30;99.90;;;;;;6157555;23;20049;-82
2023/01/03 15:19:57;;;;;;;21.33;10.53;;;6.80;99.90;;;;;;6156995;23;20119;-83
2023/01/03 15:22:41;;;;;;;19.33;9.37;;;7.80;99.90;;;;;;6184478;23;20013;-83